Time,TemperatureF,DewpointF,PressureIn,WindDirection,WindDirectionDegrees,WindSpeedMPH,WindSpeedGustMPH,Humidity,HourlyPrecipIn,Conditions,Clouds,dailyrainin,SoftwareType,DateUTC
2013-12-03 00:22:00,36.0,35.0,29.67,East,97,6.0,10.0,95,0.00,,,0.01,,2013-12-03 06:22:00,
2013-12-03 00:52:00,36.0,35.0,29.67,East,98,2.0,4.0,95,0.00,,,0.01,,2013-12-03 06:52:00,
2013-12-03 01:22:00,36.0,35.0,29.67,East,92,3.0,6.0,96,0.00,,,0.01,,2013-12-03 07:22:00,
2013-12-03 01:52:00,36.0,35.0,29.66,ESE,117,6.0,10.0,96,0.00,,,0.01,,2013-12-03 07:52:00,
2013-12-03 02:22:00,36.0,35.0,29.66,East,86,1.0,9.0,96,0.00,,,0.01,,2013-12-03 08:22:00,
2013-12-03 02:53:00,36.0,35.0,29.66,East,90,2.0,8.0,96,0.00,,,0.01,,2013-12-03 08:53:00,
2013-12-03 03:21:00,36.0,35.0,29.65,ESE,115,2.0,6.0,97,0.00,,,0.01,,2013-12-03 09:21:00,
2013-12-03 03:53:00,36.0,35.0,29.64,ESE,111,0.0,2.0,97,0.00,,,0.01,,2013-12-03 09:53:00,
2013-12-03 04:23:00,36.0,35.0,29.64,East,83,2.0,6.0,97,0.00,,,0.01,,2013-12-03 10:23:00,
2013-12-03 04:53:00,36.0,35.0,29.64,ENE,73,2.0,5.0,97,0.00,,,0.01,,2013-12-03 10:53:00,
2013-12-03 05:22:00,36.0,35.0,29.65,ENE,77,0.0,5.0,97,0.00,,,0.01,,2013-12-03 11:22:00,
2013-12-03 05:52:00,36.0,35.0,29.66,East,84,0.0,3.0,97,0.00,,,0.01,,2013-12-03 11:52:00,
2013-12-03 06:21:00,36.0,35.0,29.62,SE,131,8.0,11.0,98,0.00,,,0.01,,2013-12-03 12:21:00,
2013-12-03 06:52:00,37.0,36.0,29.65,ESE,104,0.0,4.0,98,0.00,,,0.01,,2013-12-03 12:52:00,
2013-12-03 07:21:00,36.0,35.0,29.66,ESE,111,0.0,4.0,98,0.00,,,0.01,,2013-12-03 13:21:00,
2013-12-03 07:52:00,37.0,36.0,29.66,East,94,0.0,4.0,98,0.00,,,0.01,,2013-12-03 13:52:00,
2013-12-03 08:22:00,37.0,37.0,29.67,SE,128,3.0,7.0,99,0.00,,,0.01,,2013-12-03 14:22:00,
2013-12-03 08:52:00,37.0,37.0,29.66,SE,126,3.0,5.0,99,0.00,,,0.01,,2013-12-03 14:52:00,
2013-12-03 09:21:00,38.0,38.0,29.65,ESE,121,4.0,9.0,100,0.00,,,0.01,,2013-12-03 15:21:00,
2013-12-03 09:33:00,38.0,38.0,29.65,ESE,121,4.0,9.0,100,0.00,,,0.01,,2013-12-03 15:33:00,
2013-12-03 09:53:00,39.0,39.0,29.65,SSE,152,8.0,13.0,100,0.01,,,0.02,,2013-12-03 15:53:00,
2013-12-03 10:23:00,40.0,40.0,29.65,SE,128,10.0,15.0,100,0.01,,,0.02,,2013-12-03 16:23:00,
2013-12-03 10:52:00,40.0,40.0,29.65,SE,136,10.0,14.0,100,0.00,,,0.02,,2013-12-03 16:52:00,
2013-12-03 11:22:00,41.0,41.0,29.65,SE,140,9.0,14.0,100,0.00,,,0.02,,2013-12-03 17:22:00,
2013-12-03 11:52:00,41.0,41.0,29.65,SSE,151,7.0,13.0,100,0.00,,,0.02,,2013-12-03 17:52:00,
2013-12-03 12:22:00,42.0,42.0,29.64,SSE,158,8.0,12.0,100,0.00,,,0.02,,2013-12-03 18:22:00,
2013-12-03 12:53:00,43.0,43.0,29.63,SSE,160,9.0,16.0,100,0.00,,,0.02,,2013-12-03 18:53:00,
2013-12-03 13:22:00,43.0,43.0,29.63,SSE,163,4.0,7.0,100,0.00,,,0.02,,2013-12-03 19:22:00,
2013-12-03 13:52:00,44.0,44.0,29.64,South,179,3.0,7.0,100,0.00,,,0.02,,2013-12-03 19:52:00,
2013-12-03 14:22:00,44.0,44.0,29.64,South,189,1.0,7.0,100,0.00,,,0.02,,2013-12-03 20:22:00,
2013-12-03 14:53:00,44.0,44.0,29.63,South,189,2.0,3.0,100,0.00,,,0.02,,2013-12-03 20:53:00,
2013-12-03 15:22:00,44.0,44.0,29.62,SE,131,4.0,8.0,100,0.00,,,0.02,,2013-12-03 21:22:00,
2013-12-03 15:53:00,45.0,45.0,29.60,SE,136,9.0,13.0,100,0.00,,,0.02,,2013-12-03 21:53:00,
2013-12-03 16:23:00,45.0,45.0,29.59,SE,142,10.0,15.0,100,0.00,,,0.02,,2013-12-03 22:23:00,
2013-12-03 16:53:00,45.0,45.0,29.59,SE,143,9.0,14.0,100,0.00,,,0.02,,2013-12-03 22:53:00,
2013-12-03 17:22:00,45.0,45.0,29.59,SSE,159,8.0,13.0,100,0.00,,,0.02,,2013-12-03 23:22:00,
2013-12-03 17:52:00,45.0,45.0,29.61,SSE,165,6.0,8.0,100,0.00,,,0.02,,2013-12-03 23:52:00,
2013-12-03 18:22:00,45.0,45.0,29.64,SSW,192,0.0,0.0,100,0.00,,,0.01,,2013-12-04 00:22:00,
2013-12-03 18:52:00,45.0,45.0,29.67,SSW,209,1.0,7.0,100,0.00,,,0.01,,2013-12-04 00:52:00,
2013-12-03 19:21:00,45.0,45.0,29.67,SW,216,0.0,0.0,100,0.00,,,0.01,,2013-12-04 01:21:00,
2013-12-03 19:52:00,44.0,44.0,29.66,SW,216,0.0,0.0,100,0.00,,,0.01,,2013-12-04 01:52:00,
2013-12-03 20:22:00,44.0,44.0,29.67,SW,216,0.0,0.0,100,0.00,,,0.01,,2013-12-04 02:22:00,
2013-12-03 20:52:00,44.0,44.0,29.66,SE,146,0.0,1.0,100,0.00,,,0.01,,2013-12-04 02:52:00,
2013-12-03 21:21:00,43.0,43.0,29.66,ESE,113,2.0,3.0,100,0.00,,,0.01,,2013-12-04 03:21:00,
2013-12-03 21:54:00,43.0,43.0,29.66,ESE,113,0.0,0.0,100,0.00,,,0.01,,2013-12-04 03:54:00,
2013-12-03 22:13:00,44.0,44.0,29.66,ESE,113,2.0,4.0,100,0.00,,,0.01,,2013-12-04 04:13:00,
2013-12-03 22:23:00,44.0,44.0,29.66,ESE,123,3.0,6.0,100,0.00,,,0.01,,2013-12-04 04:23:00,
2013-12-03 22:52:00,44.0,44.0,29.66,ESE,123,2.0,4.0,100,0.00,,,0.01,,2013-12-04 04:52:00,
2013-12-03 23:22:00,45.0,45.0,29.65,ESE,123,2.0,7.0,100,0.00,,,0.01,,2013-12-04 05:22:00,
2013-12-03 23:53:00,45.0,45.0,29.65,ESE,123,3.0,4.0,100,0.00,,,0.01,,2013-12-04 05:53:00,